Hoxter-Holzminden Airport


Codes: EDVI/
Name: Hoxter-Holzminden Airport
City: Hoxter
Country: Germany
Elevation: 1263 ft.

Photos at Hoxter-Holzminden Airport


   Photos courtesy of SpottingLog. You can add your own sightings and photos by signing up for a free trial today.



No photos found.

Weather at Hoxter-Holzminden Airport


Time (UTC)DescriptionTempratureWindCloud coverageVisibilityPressureHumidity
15-Apr-2024 18:00Light Rain9°C16 mph, W99%10000m998hPa67%
15-Apr-2024 21:00Light Rain6°C16 mph, W82%10000m1000hPa79%
16-Apr-2024 00:00Broken Clouds4°C16 mph, W83%10000m1001hPa84%
16-Apr-2024 03:00Light Rain4°C16 mph, SW100%10000m1000hPa81%
16-Apr-2024 06:00Overcast Clouds3°C13 mph, SW100%10000m1000hPa89%
16-Apr-2024 09:00Light Rain4°C9 mph, SW100%10000m1000hPa91%
16-Apr-2024 12:00Light Rain4°C4 mph, N100%0m1000hPa97%
16-Apr-2024 15:00Light Rain6°C9 mph, NW100%10000m1002hPa86%
16-Apr-2024 18:00Light Rain5°C7 mph, NW100%6123m1004hPa94%
16-Apr-2024 21:00Light Rain2°C2 mph, NW100%10000m1007hPa97%
17-Apr-2024 00:00Overcast Clouds4°C2 mph, W100%10000m1008hPa97%
17-Apr-2024 03:00Light Rain3°C2 mph, W100%10000m1009hPa98%
17-Apr-2024 06:00Overcast Clouds3°C2 mph, W100%9637m1011hPa96%
17-Apr-2024 09:00Overcast Clouds5°C4 mph, NW100%10000m1011hPa83%
17-Apr-2024 12:00Light Rain9°C7 mph, NW84%10000m1011hPa55%
17-Apr-2024 15:00Light Rain8°C7 mph, N89%10000m1011hPa67%
17-Apr-2024 18:00Light Rain5°C4 mph, N96%10000m1012hPa87%
17-Apr-2024 21:00Overcast Clouds2°C2 mph, N93%10000m1014hPa92%
18-Apr-2024 00:00Broken Clouds1°C2 mph, NE59%10000m1015hPa92%
18-Apr-2024 03:00Few Clouds0°C2 mph, N16%10000m1016hPa92%
18-Apr-2024 06:00Clear Sky3°C2 mph, NW9%10000m1018hPa87%
18-Apr-2024 09:00Clear Sky8°C4 mph, NW8%10000m1018hPa62%
18-Apr-2024 12:00Light Rain10°C9 mph, NW25%10000m1018hPa54%
18-Apr-2024 15:00Light Rain9°C9 mph, NW75%10000m1018hPa70%
18-Apr-2024 18:00Light Rain5°C7 mph, NW45%10000m1019hPa87%
18-Apr-2024 21:00Scattered Clouds2°C2 mph, W28%10000m1021hPa94%
19-Apr-2024 00:00Broken Clouds1°C4 mph, SW61%10000m1020hPa95%
19-Apr-2024 03:00Overcast Clouds1°C4 mph, SW100%10000m1019hPa97%
19-Apr-2024 06:00Light Rain3°C9 mph, SW100%10000m1016hPa91%
19-Apr-2024 09:00Light Rain3°C13 mph, SW100%70m1012hPa98%
19-Apr-2024 12:00Light Rain5°C16 mph, W100%8738m1009hPa97%
19-Apr-2024 15:00Light Rain8°C16 mph, NW96%10000m1009hPa85%
19-Apr-2024 18:00Light Rain5°C18 mph, NW66%10000m1011hPa87%
19-Apr-2024 21:00Broken Clouds3°C16 mph, NW77%10000m1013hPa88%
20-Apr-2024 00:00Light Rain3°C16 mph, N89%0m1013hPa96%
20-Apr-2024 03:00Light Rain3°C16 mph, N100%0m1016hPa97%
20-Apr-2024 06:00Light Snow2°C9 mph, NW100%8878m1019hPa93%
20-Apr-2024 09:00Light Rain5°C13 mph, NW99%10000m1021hPa76%
20-Apr-2024 12:00Light Rain7°C11 mph, NW100%10000m1022hPa69%
20-Apr-2024 15:00Light Rain7°C11 mph, NW100%10000m1022hPa77%